Time;durP1;ratioP1;P1;durP2;ratioP2;P2;SDS_P1;SDS_P2;PMS_P1;PMS_P2;Temp;Humidity;BMP_temperature;BMP_pressure;BME280_temperature;BME280_humidity;BME280_pressure;Samples;Min_cycle;Max_cycle;Signal;HPM_P1;HPM_P2
2020/12/09 00:01:20;;;;;;;71.70;23.60;;;3.70;97.10;;;;;;5035030;28;20169;-75
2020/12/09 00:03:46;;;;;;;83.97;27.40;;;3.70;97.20;;;;;;5034890;28;20603;-76
2020/12/09 00:06:12;;;;;;;82.82;28.10;;;3.70;96.80;;;;;;5034947;28;20430;-75
2020/12/09 00:08:38;;;;;;;74.03;25.70;;;3.70;97.10;;;;;;5034859;28;20637;-76
2020/12/09 00:11:06;;;;;;;76.15;26.10;;;3.60;97.20;;;;;;5034898;28;20412;-75
2020/12/09 00:13:32;;;;;;;79.47;24.60;;;3.70;97.80;;;;;;5034920;28;20268;-76
2020/12/09 00:15:58;;;;;;;76.80;26.93;;;3.70;98.20;;;;;;5034794;28;20646;-76
2020/12/09 00:18:24;;;;;;;87.93;26.03;;;3.70;97.90;;;;;;5034550;28;20447;-75
2020/12/09 00:20:49;;;;;;;77.47;25.63;;;3.70;98.30;;;;;;5034764;28;20528;-76
2020/12/09 00:23:15;;;;;;;75.70;28.00;;;3.70;98.50;;;;;;5034605;28;20494;-76
2020/12/09 00:25:41;;;;;;;72.60;25.27;;;3.80;98.60;;;;;;5034849;28;20192;-76
2020/12/09 00:28:07;;;;;;;78.57;25.77;;;3.80;98.60;;;;;;5034562;28;20193;-76
2020/12/09 00:30:33;;;;;;;71.90;25.60;;;3.90;98.20;;;;;;5034577;28;20179;-76
2020/12/09 00:32:58;;;;;;;74.17;25.23;;;3.90;98.00;;;;;;5034595;28;20416;-76
2020/12/09 00:35:24;;;;;;;87.73;26.83;;;3.90;98.00;;;;;;5034721;28;20445;-78
2020/12/09 00:37:50;;;;;;;78.77;25.07;;;3.90;97.90;;;;;;5034480;28;20201;-76
2020/12/09 00:40:15;;;;;;;78.57;26.77;;;3.90;98.10;;;;;;5034354;28;20165;-76
2020/12/09 00:42:41;;;;;;;76.87;27.27;;;3.90;98.20;;;;;;5034579;28;20192;-75
2020/12/09 00:45:07;;;;;;;75.57;29.20;;;4.00;97.80;;;;;;5034579;28;20409;-75
2020/12/09 00:47:33;;;;;;;75.83;26.23;;;3.90;97.70;;;;;;5034243;28;20431;-76
2020/12/09 00:50:27;;;;;;;79.30;27.40;;;3.90;98.00;;;;;;5034598;28;20176;-76
2020/12/09 00:52:47;;;;;;;89.60;27.63;;;4.00;97.90;;;;;;5052274;28;20222;-77
2020/12/09 00:55:12;;;;;;;82.40;24.80;;;4.00;98.10;;;;;;5034422;28;20169;-75
2020/12/09 00:57:38;;;;;;;70.77;25.17;;;4.00;97.90;;;;;;5034148;28;20486;-76
2020/12/09 01:00:07;;;;;;;78.13;25.20;;;4.10;98.00;;;;;;5034428;28;20400;-76
2020/12/09 01:02:33;;;;;;;76.40;25.75;;;4.10;97.80;;;;;;5034375;28;20253;-76
2020/12/09 01:04:59;;;;;;;77.93;26.00;;;4.10;97.70;;;;;;5034298;28;20696;-76
2020/12/09 01:07:25;;;;;;;77.05;24.90;;;4.10;97.40;;;;;;5034301;28;20497;-77
2020/12/09 01:09:51;;;;;;;76.97;24.40;;;4.10;97.10;;;;;;5036687;28;20645;-78
2020/12/09 01:12:17;;;;;;;71.13;25.67;;;4.00;97.30;;;;;;5038379;28;20223;-78
2020/12/09 01:14:43;;;;;;;77.83;25.77;;;4.00;97.40;;;;;;5038263;28;20189;-78
2020/12/09 01:17:09;;;;;;;79.80;25.70;;;3.90;97.60;;;;;;5038048;28;20496;-78
2020/12/09 01:19:34;;;;;;;80.60;29.70;;;3.90;98.00;;;;;;5038071;28;20673;-78
2020/12/09 01:22:07;;;;;;;73.80;26.00;;;3.90;98.30;;;;;;5038310;28;20404;-78
2020/12/09 01:24:33;;;;;;;76.05;24.58;;;4.00;98.70;;;;;;5038302;28;20706;-78
2020/12/09 01:26:59;;;;;;;74.10;26.65;;;4.00;98.80;;;;;;5038190;28;20216;-78
2020/12/09 01:29:25;;;;;;;75.27;25.77;;;4.00;98.70;;;;;;5037874;28;20254;-79
2020/12/09 01:31:58;;;;;;;81.82;28.42;;;4.00;98.20;;;;;;5038105;28;20177;-78
2020/12/09 01:34:25;;;;;;;76.88;25.17;;;4.00;97.90;;;;;;5038001;28;20227;-78
2020/12/09 01:36:52;;;;;;;78.07;25.75;;;4.00;98.00;;;;;;5037824;28;20567;-78
2020/12/09 01:39:18;;;;;;;80.85;25.30;;;4.00;98.20;;;;;;5037677;28;20339;-78
2020/12/09 01:41:43;;;;;;;82.95;28.55;;;4.00;97.90;;;;;;5037829;28;20192;-78
2020/12/09 01:44:10;;;;;;;85.53;25.60;;;4.10;98.20;;;;;;5037836;28;20657;-78
2020/12/09 01:46:36;;;;;;;77.65;26.92;;;4.10;98.40;;;;;;5037712;28;20419;-78
2020/12/09 01:49:03;;;;;;;70.88;25.35;;;4.10;98.60;;;;;;5037577;28;20184;-78
2020/12/09 01:51:30;;;;;;;73.50;23.35;;;4.10;98.10;;;;;;5037780;28;20177;-78
2020/12/09 01:53:58;;;;;;;68.35;24.63;;;4.00;97.70;;;;;;5037648;28;20183;-78
2020/12/09 01:56:25;;;;;;;66.25;23.83;;;4.00;97.90;;;;;;5037563;28;20583;-78
2020/12/09 01:58:52;;;;;;;72.00;24.67;;;4.00;98.00;;;;;;5037382;28;20193;-78
2020/12/09 02:01:18;;;;;;;71.68;26.08;;;4.10;98.10;;;;;;5037561;28;20188;-78
2020/12/09 02:03:46;;;;;;;65.85;23.55;;;4.10;98.20;;;;;;5037859;28;20197;-80
2020/12/09 02:06:15;;;;;;;80.72;26.13;;;4.10;97.90;;;;;;5039075;28;20197;-80
2020/12/09 02:08:42;;;;;;;73.70;25.90;;;4.10;97.70;;;;;;5037710;28;20268;-77
2020/12/09 02:11:08;;;;;;;65.85;24.75;;;4.10;97.70;;;;;;5037466;28;20638;-78
2020/12/09 02:13:34;;;;;;;75.38;28.58;;;4.00;98.10;;;;;;5037281;28;20197;-78
2020/12/09 02:16:01;;;;;;;76.83;26.00;;;4.00;98.40;;;;;;5037051;28;20193;-79
2020/12/09 02:18:27;;;;;;;82.70;25.67;;;4.00;98.40;;;;;;5037022;28;20193;-79
2020/12/09 02:20:53;;;;;;;77.97;26.48;;;4.00;98.60;;;;;;5037100;28;20551;-79
2020/12/09 02:23:19;;;;;;;69.40;25.10;;;4.00;98.70;;;;;;5037059;28;20174;-78
2020/12/09 02:25:46;;;;;;;67.53;24.77;;;4.00;98.80;;;;;;5037034;28;20188;-78
2020/12/09 02:28:12;;;;;;;73.90;24.75;;;4.00;98.70;;;;;;5036879;28;20474;-78
2020/12/09 02:30:39;;;;;;;64.55;25.48;;;3.90;98.80;;;;;;5037041;28;20173;-78
2020/12/09 02:33:04;;;;;;;64.07;22.08;;;4.00;98.90;;;;;;5036906;28;20180;-78
2020/12/09 02:35:30;;;;;;;68.73;26.37;;;4.00;99.00;;;;;;5036904;28;20699;-78
2020/12/09 02:37:56;;;;;;;69.57;25.30;;;4.10;98.90;;;;;;5036490;28;20526;-78
2020/12/09 02:40:23;;;;;;;81.20;26.97;;;4.10;98.90;;;;;;5036780;28;20264;-78
2020/12/09 02:42:49;;;;;;;76.32;25.85;;;4.10;98.60;;;;;;5036759;28;20177;-78
2020/12/09 02:45:16;;;;;;;83.03;26.08;;;4.10;98.10;;;;;;5054433;28;20169;-78
2020/12/09 02:47:41;;;;;;;77.45;25.67;;;4.10;98.00;;;;;;5036448;28;20892;-78
2020/12/09 02:50:08;;;;;;;58.97;24.17;;;4.10;97.80;;;;;;5036598;28;20173;-78
2020/12/09 02:52:34;;;;;;;76.13;25.55;;;4.10;97.60;;;;;;5036656;28;20412;-78
2020/12/09 02:54:59;;;;;;;73.27;23.53;;;4.10;97.40;;;;;;5054658;28;20661;-78
2020/12/09 02:57:25;;;;;;;72.68;24.92;;;4.10;97.50;;;;;;5036244;28;20440;-79
2020/12/09 02:59:51;;;;;;;62.37;25.47;;;4.20;97.30;;;;;;5036458;28;20260;-79
2020/12/09 03:02:17;;;;;;;75.17;25.53;;;4.20;97.60;;;;;;5036417;28;20491;-78
2020/12/09 03:04:43;;;;;;;69.97;23.70;;;4.20;97.40;;;;;;5036380;28;20416;-78
2020/12/09 03:07:09;;;;;;;74.53;24.53;;;4.30;97.30;;;;;;5036345;28;20568;-78
2020/12/09 03:09:34;;;;;;;72.43;27.17;;;4.30;97.30;;;;;;5036188;28;20177;-79
2020/12/09 03:12:00;;;;;;;69.00;25.07;;;4.30;97.60;;;;;;5036259;28;20687;-78
2020/12/09 03:14:26;;;;;;;75.67;26.50;;;4.30;97.70;;;;;;5036166;28;20412;-78
2020/12/09 03:16:52;;;;;;;66.15;25.15;;;4.30;97.60;;;;;;5036102;28;20216;-76
2020/12/09 03:19:17;;;;;;;75.10;24.50;;;4.30;97.70;;;;;;5035907;28;20199;-76
2020/12/09 03:21:43;;;;;;;80.97;27.43;;;4.20;98.00;;;;;;5036247;28;20208;-77
2020/12/09 03:24:12;;;;;;;76.23;25.70;;;4.20;98.20;;;;;;5036117;28;20169;-75
2020/12/09 03:26:38;;;;;;;78.25;25.48;;;4.20;98.30;;;;;;5035700;28;20428;-75
2020/12/09 03:29:04;;;;;;;73.95;25.75;;;4.30;98.40;;;;;;5035899;28;20181;-75
2020/12/09 03:31:31;;;;;;;80.43;29.88;;;4.20;98.20;;;;;;5035219;28;20263;-75
2020/12/09 03:33:57;;;;;;;72.47;26.80;;;4.20;98.40;;;;;;5035844;28;20228;-75
2020/12/09 03:36:23;;;;;;;77.22;26.75;;;4.20;98.40;;;;;;5035542;28;20288;-75
2020/12/09 03:38:49;;;;;;;78.03;25.30;;;4.20;98.30;;;;;;5035409;28;20284;-75
2020/12/09 03:41:14;;;;;;;72.83;29.10;;;4.20;98.40;;;;;;5035550;28;20408;-75
2020/12/09 03:43:40;;;;;;;72.87;26.83;;;4.30;98.30;;;;;;5035426;28;20307;-76
2020/12/09 03:46:06;;;;;;;76.97;27.13;;;4.30;98.20;;;;;;5035436;28;20173;-75
2020/12/09 03:48:32;;;;;;;65.30;24.50;;;4.40;97.90;;;;;;5053111;28;20411;-75
2020/12/09 03:50:57;;;;;;;86.57;29.03;;;4.30;98.00;;;;;;5035530;28;20810;-75
2020/12/09 03:53:23;;;;;;;64.03;22.80;;;4.30;98.40;;;;;;5035720;28;20411;-75
2020/12/09 03:55:49;;;;;;;70.33;26.27;;;4.30;98.50;;;;;;5035127;28;20637;-75
2020/12/09 03:58:15;;;;;;;71.10;24.45;;;4.20;98.80;;;;;;5034278;28;20447;-75
2020/12/09 04:00:42;;;;;;;69.65;25.88;;;4.20;98.90;;;;;;5034882;28;20645;-76
2020/12/09 04:03:08;;;;;;;65.07;25.58;;;4.30;99.00;;;;;;5035338;28;20544;-78
2020/12/09 04:05:34;;;;;;;72.60;26.80;;;4.20;98.80;;;;;;5035305;28;20176;-77
2020/12/09 04:08:00;;;;;;;75.53;26.20;;;4.20;98.90;;;;;;5035147;28;20451;-78
2020/12/09 04:10:26;;;;;;;86.22;27.30;;;4.20;99.10;;;;;;5035270;28;20576;-78
2020/12/09 04:12:52;;;;;;;88.22;28.58;;;4.20;99.10;;;;;;5035198;28;20525;-79
2020/12/09 04:15:18;;;;;;;81.60;26.80;;;4.10;99.10;;;;;;5035042;28;20187;-79
2020/12/09 04:17:44;;;;;;;75.30;27.73;;;4.10;99.10;;;;;;5034963;28;20193;-79
2020/12/09 04:20:12;;;;;;;85.93;26.55;;;4.10;99.10;;;;;;5035013;28;20442;-79
2020/12/09 04:22:38;;;;;;;82.28;28.65;;;4.10;99.10;;;;;;5034878;28;20197;-78
2020/12/09 04:25:04;;;;;;;75.63;26.10;;;4.10;99.10;;;;;;5034979;28;20201;-78
2020/12/09 04:27:30;;;;;;;96.72;27.92;;;4.10;99.10;;;;;;5034821;28;20451;-78
2020/12/09 04:29:56;;;;;;;73.10;25.80;;;4.20;99.10;;;;;;5034999;28;20211;-78
2020/12/09 04:32:21;;;;;;;83.47;28.20;;;4.10;99.10;;;;;;5034842;28;20415;-79
2020/12/09 04:34:47;;;;;;;79.93;25.20;;;4.10;99.10;;;;;;5034893;28;20407;-78
2020/12/09 04:37:15;;;;;;;85.10;29.25;;;4.20;99.10;;;;;;5034728;28;20670;-78
2020/12/09 04:39:41;;;;;;;69.85;26.05;;;4.10;99.10;;;;;;5034562;28;20724;-78
2020/12/09 04:42:06;;;;;;;83.97;27.37;;;4.10;99.10;;;;;;5034596;28;20189;-79
2020/12/09 04:44:32;;;;;;;93.73;28.93;;;4.20;99.10;;;;;;5033690;28;20423;-78
2020/12/09 04:47:04;;;;;;;76.40;25.02;;;4.20;99.10;;;;;;5034700;28;20196;-78
2020/12/09 04:49:41;;;;;;;78.97;27.77;;;4.10;99.10;;;;;;5034701;28;20168;-79
2020/12/09 04:52:25;;;;;;;71.70;26.65;;;4.10;99.10;;;;;;5034826;28;20267;-78
2020/12/09 04:54:57;;;;;;;86.10;28.60;;;4.10;99.10;;;;;;5034549;28;20306;-78
2020/12/09 04:57:45;;;;;;;76.25;26.08;;;4.10;99.10;;;;;;5034621;28;20540;-78
2020/12/09 05:00:13;;;;;;;74.68;26.65;;;4.10;99.10;;;;;;5034446;28;20803;-78
2020/12/09 05:02:51;;;;;;;77.05;26.45;;;4.10;99.10;;;;;;5034541;28;20169;-78
2020/12/09 05:05:21;;;;;;;74.43;24.45;;;4.10;99.10;;;;;;5034559;28;20673;-78
2020/12/09 05:07:49;;;;;;;73.03;27.20;;;4.00;99.10;;;;;;5034460;28;20196;-78
2020/12/09 05:10:17;;;;;;;79.40;29.00;;;4.00;99.10;;;;;;5034616;28;20170;-78
2020/12/09 05:12:51;;;;;;;78.03;27.98;;;4.00;99.10;;;;;;5034551;28;20169;-78
2020/12/09 05:15:20;;;;;;;81.80;26.02;;;4.10;99.10;;;;;;5034484;28;20192;-78
2020/12/09 05:17:49;;;;;;;75.43;27.17;;;4.10;99.10;;;;;;5034354;28;20189;-79
2020/12/09 05:20:15;;;;;;;83.85;28.88;;;4.00;99.10;;;;;;5034455;28;20169;-78
2020/12/09 05:22:45;;;;;;;80.30;29.87;;;4.10;99.10;;;;;;5034668;28;20177;-79
2020/12/09 05:25:11;;;;;;;81.60;26.42;;;4.00;99.10;;;;;;5035141;28;20456;-79
2020/12/09 05:27:37;;;;;;;89.70;30.47;;;4.00;99.10;;;;;;5034788;28;20276;-79
2020/12/09 05:30:02;;;;;;;74.30;28.50;;;4.10;99.10;;;;;;5034989;28;20407;-80
2020/12/09 05:32:29;;;;;;;76.50;29.80;;;4.10;99.10;;;;;;5034454;28;20263;-80
2020/12/09 05:34:54;;;;;;;78.70;28.85;;;4.10;99.10;;;;;;5034679;28;20646;-79
2020/12/09 05:37:21;;;;;;;85.50;31.20;;;4.00;99.10;;;;;;5034554;28;20195;-80
2020/12/09 05:39:55;;;;;;;70.95;25.40;;;4.10;99.10;;;;;;5035473;28;20193;-80
2020/12/09 05:42:22;;;;;;;80.88;27.25;;;4.10;99.10;;;;;;5035473;28;20215;-80
2020/12/09 05:44:49;;;;;;;82.10;27.30;;;4.10;99.10;;;;;;5034573;28;20577;-78
2020/12/09 05:47:17;;;;;;;83.50;28.67;;;4.20;99.10;;;;;;5034811;28;20192;-80
2020/12/09 05:49:43;;;;;;;72.57;25.73;;;4.20;99.10;;;;;;5034248;28;20256;-80
2020/12/09 05:52:14;;;;;;;81.40;28.43;;;4.20;99.10;;;;;;5035392;28;20178;-80
2020/12/09 05:54:44;;;;;;;78.85;28.08;;;4.30;99.10;;;;;;5036150;28;20419;-80
2020/12/09 05:57:12;;;;;;;74.95;27.38;;;4.30;99.10;;;;;;5039030;28;20196;-79
2020/12/09 05:59:44;;;;;;;73.45;26.65;;;4.30;99.10;;;;;;5037712;28;20654;-79
2020/12/09 06:02:18;;;;;;;81.72;26.83;;;4.30;99.10;;;;;;5037436;28;20166;-79
2020/12/09 06:04:56;;;;;;;86.65;27.45;;;4.30;99.10;;;;;;5037441;28;20180;-79
2020/12/09 06:07:26;;;;;;;89.88;28.00;;;4.30;99.10;;;;;;5037250;28;20633;-80
2020/12/09 06:10:07;;;;;;;85.22;30.08;;;4.30;99.10;;;;;;5055269;28;20168;-78
2020/12/09 06:12:57;;;;;;;85.72;28.25;;;4.30;99.10;;;;;;5038728;28;20172;-79
2020/12/09 06:15:24;;;;;;;85.35;27.52;;;4.20;99.10;;;;;;5040283;28;20192;-80
2020/12/09 06:18:07;;;;;;;79.10;26.95;;;4.30;99.10;;;;;;5040672;28;20204;-80
2020/12/09 06:20:34;;;;;;;97.45;29.20;;;4.30;99.10;;;;;;5041083;28;20219;-81
2020/12/09 06:23:01;;;;;;;72.47;28.23;;;4.40;99.10;;;;;;5040478;28;20343;-81
2020/12/09 06:25:27;;;;;;;85.55;26.77;;;4.40;99.10;;;;;;5040571;28;20219;-80
2020/12/09 06:27:54;;;;;;;73.83;26.37;;;4.40;99.10;;;;;;5041087;28;20193;-80
2020/12/09 06:30:28;;;;;;;80.97;27.25;;;4.40;99.10;;;;;;5040319;28;20174;-79
2020/12/09 06:32:54;;;;;;;74.97;29.80;;;4.40;99.10;;;;;;5040298;28;20193;-80
2020/12/09 06:35:21;;;;;;;81.72;29.27;;;4.50;99.10;;;;;;5039578;28;20665;-81
2020/12/09 06:38:09;;;;;;;88.28;27.63;;;4.50;99.10;;;;;;5039340;28;20824;-80
2020/12/09 06:40:39;;;;;;;67.38;25.92;;;4.50;99.10;;;;;;5039858;28;20177;-81
2020/12/09 06:43:11;;;;;;;75.55;28.20;;;4.50;99.10;;;;;;5040043;28;20527;-81
2020/12/09 06:45:46;;;;;;;86.30;29.92;;;4.40;99.10;;;;;;5040010;28;20169;-80
2020/12/09 06:48:16;;;;;;;84.43;30.15;;;4.40;99.10;;;;;;5039509;28;20207;-81
2020/12/09 06:50:43;;;;;;;76.25;28.25;;;4.50;99.10;;;;;;5039309;28;20193;-80
2020/12/09 06:53:17;;;;;;;86.60;28.67;;;4.50;99.10;;;;;;5039856;28;20538;-81
2020/12/09 06:55:43;;;;;;;90.88;29.45;;;4.50;99.10;;;;;;5039570;28;20267;-81
2020/12/09 06:58:26;;;;;;;76.60;27.52;;;4.50;99.10;;;;;;5039261;28;20745;-80
2020/12/09 07:00:59;;;;;;;70.18;28.48;;;4.40;99.10;;;;;;5039201;28;20271;-81
2020/12/09 07:03:26;;;;;;;90.78;31.77;;;4.50;99.10;;;;;;5039231;28;20664;-80
2020/12/09 07:05:52;;;;;;;75.53;28.27;;;4.40;99.10;;;;;;5039109;28;20177;-80
2020/12/09 07:08:18;;;;;;;74.97;27.00;;;4.40;99.10;;;;;;5038338;28;20610;-80
2020/12/09 07:10:44;;;;;;;71.53;26.27;;;4.40;99.10;;;;;;5038960;28;20212;-80
2020/12/09 07:13:12;;;;;;;73.00;27.50;;;4.50;99.10;;;;;;5038579;28;20416;-80
2020/12/09 07:15:47;;;;;;;82.55;28.50;;;4.50;99.10;;;;;;5041527;28;20974;-80
2020/12/09 07:18:13;;;;;;;72.53;25.73;;;4.50;99.10;;;;;;5042350;28;20222;-81
2020/12/09 07:20:41;;;;;;;70.68;23.73;;;4.50;99.10;;;;;;5026876;28;20201;-81
2020/12/09 07:23:07;;;;;;;78.10;28.10;;;4.50;99.10;;;;;;5042239;28;20205;-81
2020/12/09 07:25:34;;;;;;;59.00;24.50;;;4.50;99.10;;;;;;5042414;28;20177;-80
2020/12/09 07:28:01;;;;;;;68.07;27.75;;;4.50;99.10;;;;;;5042900;28;20531;-81
2020/12/09 07:30:27;;;;;;;80.07;32.47;;;4.60;99.10;;;;;;5042641;28;20200;-80
2020/12/09 07:32:54;;;;;;;84.22;28.60;;;4.60;99.10;;;;;;5041407;28;20192;-80
2020/12/09 07:35:21;;;;;;;78.68;29.02;;;4.60;99.10;;;;;;5040953;28;20200;-80
2020/12/09 07:37:51;;;;;;;96.93;36.72;;;4.60;99.10;;;;;;5040059;28;20647;-80
2020/12/09 07:40:25;;;;;;;87.18;28.23;;;4.60;99.10;;;;;;5039085;28;20169;-79
2020/12/09 07:43:04;;;;;;;69.40;25.35;;;4.60;99.10;;;;;;5038537;28;20165;-79
2020/12/09 07:45:31;;;;;;;76.80;26.40;;;4.70;99.10;;;;;;5039415;28;20169;-79
2020/12/09 07:48:02;;;;;;;72.28;26.67;;;4.60;99.10;;;;;;5038373;28;20197;-79
2020/12/09 07:50:28;;;;;;;75.60;25.52;;;4.60;99.10;;;;;;5037588;28;20172;-79
2020/12/09 07:52:54;;;;;;;76.32;27.45;;;4.60;99.10;;;;;;5037893;28;20260;-79
2020/12/09 07:55:20;;;;;;;66.13;24.75;;;4.70;99.10;;;;;;5038309;28;20207;-78
2020/12/09 07:57:46;;;;;;;66.72;24.83;;;4.70;99.10;;;;;;5037374;28;20204;-79
2020/12/09 08:00:14;;;;;;;59.20;23.30;;;4.70;99.10;;;;;;5037798;28;20177;-79
2020/12/09 08:02:43;;;;;;;64.15;23.05;;;4.70;99.10;;;;;;5037920;28;20455;-79
2020/12/09 08:05:20;;;;;;;61.58;23.80;;;4.70;99.10;;;;;;5037842;28;20191;-78
2020/12/09 08:08:00;;;;;;;60.50;22.77;;;4.70;99.10;;;;;;5037198;28;20193;-78
2020/12/09 08:10:28;;;;;;;75.75;25.60;;;4.80;99.10;;;;;;5037855;28;20590;-79
2020/12/09 08:13:05;;;;;;;64.00;23.42;;;4.80;99.10;;;;;;5037821;28;20182;-79
2020/12/09 08:15:35;;;;;;;71.95;27.13;;;4.80;99.10;;;;;;5037240;28;20541;-78
2020/12/09 08:18:02;;;;;;;72.00;26.85;;;4.80;99.10;;;;;;5036904;28;20208;-78
2020/12/09 08:20:28;;;;;;;67.10;24.27;;;4.80;99.10;;;;;;5036950;28;20169;-79
2020/12/09 08:22:56;;;;;;;74.18;26.83;;;4.80;99.10;;;;;;5037067;28;20169;-78
2020/12/09 08:25:24;;;;;;;73.60;28.27;;;4.80;99.10;;;;;;5036889;28;20649;-78
2020/12/09 08:27:51;;;;;;;80.97;30.30;;;4.90;99.10;;;;;;5036688;28;20274;-78
2020/12/09 08:30:25;;;;;;;83.80;29.60;;;4.90;99.10;;;;;;5037012;28;20172;-78
2020/12/09 08:32:58;;;;;;;70.13;25.77;;;4.90;99.10;;;;;;5037141;28;20172;-79
2020/12/09 08:35:24;;;;;;;71.55;27.02;;;4.90;99.10;;;;;;5037049;28;20232;-79
2020/12/09 08:37:51;;;;;;;65.50;25.83;;;5.00;98.90;;;;;;5036633;28;20272;-78
2020/12/09 08:40:17;;;;;;;74.07;26.55;;;5.00;98.10;;;;;;5037145;28;20176;-78
2020/12/09 08:42:52;;;;;;;70.17;25.60;;;5.00;98.10;;;;;;5037588;28;20173;-78
2020/12/09 08:45:18;;;;;;;77.88;27.98;;;4.90;98.00;;;;;;5037303;28;20412;-78
2020/12/09 08:47:44;;;;;;;67.90;27.23;;;4.90;98.00;;;;;;5036682;28;20196;-78
2020/12/09 08:50:10;;;;;;;69.87;26.87;;;4.80;98.40;;;;;;5036893;28;20912;-78
2020/12/09 08:52:36;;;;;;;77.20;25.25;;;4.80;98.60;;;;;;5036397;28;20416;-78
2020/12/09 08:55:03;;;;;;;81.53;30.50;;;4.80;98.40;;;;;;5036613;28;20176;-78
2020/12/09 08:57:29;;;;;;;71.97;25.70;;;4.80;98.40;;;;;;5036349;28;20197;-78
2020/12/09 08:59:55;;;;;;;76.75;25.67;;;4.70;98.20;;;;;;5036219;28;20596;-78
2020/12/09 09:02:20;;;;;;;83.87;30.90;;;4.70;98.60;;;;;;5037555;28;20283;-78
2020/12/09 09:04:46;;;;;;;70.33;27.53;;;4.60;98.80;;;;;;5037305;28;20943;-78
2020/12/09 09:07:12;;;;;;;66.63;25.93;;;4.40;99.10;;;;;;5037041;28;20431;-79
2020/12/09 09:09:37;;;;;;;73.63;27.87;;;4.40;99.10;;;;;;5037041;28;20179;-79
2020/12/09 09:12:03;;;;;;;76.17;29.17;;;4.40;99.10;;;;;;5037267;28;20177;-78
2020/12/09 09:14:31;;;;;;;86.00;28.60;;;4.40;99.10;;;;;;5037188;28;20194;-78
2020/12/09 09:16:58;;;;;;;74.72;28.65;;;4.40;99.10;;;;;;5111514;22;20240;-81
2020/12/09 09:19:23;;;;;;;77.18;29.08;;;4.40;99.10;;;;;;5042437;28;20224;-81
2020/12/09 09:21:49;;;;;;;84.63;28.53;;;4.40;99.10;;;;;;5042931;28;20169;-81
2020/12/09 09:24:15;;;;;;;95.40;29.80;;;4.40;99.10;;;;;;5042866;28;20515;-81
2020/12/09 09:26:41;;;;;;;69.60;26.73;;;4.40;99.10;;;;;;5042696;28;20198;-81
2020/12/09 09:29:06;;;;;;;80.43;24.90;;;4.40;99.10;;;;;;5042480;28;20423;-82
2020/12/09 09:31:33;;;;;;;70.07;26.67;;;4.50;99.10;;;;;;5043318;28;20833;-84
2020/12/09 09:33:59;;;;;;;92.63;30.15;;;4.50;99.10;;;;;;5043308;28;20181;-81
2020/12/09 09:36:29;;;;;;;76.90;26.67;;;4.50;99.10;;;;;;5043850;28;20287;-82
2020/12/09 09:38:55;;;;;;;85.22;29.50;;;4.40;99.10;;;;;;5043785;28;20516;-81
2020/12/09 09:41:21;;;;;;;77.10;26.20;;;4.40;99.10;;;;;;5045334;28;20470;-81
2020/12/09 09:43:46;;;;;;;88.67;28.90;;;4.40;99.10;;;;;;5046234;28;20491;-81
2020/12/09 09:46:12;;;;;;;92.27;29.77;;;4.40;99.10;;;;;;5045955;28;20429;-80
2020/12/09 09:48:38;;;;;;;69.80;28.70;;;4.40;99.10;;;;;;5045719;28;20170;-81
2020/12/09 09:51:04;;;;;;;84.73;29.17;;;4.40;99.10;;;;;;5046154;28;20407;-81
2020/12/09 09:53:30;;;;;;;76.43;27.42;;;4.40;99.10;;;;;;5045701;28;20453;-80
2020/12/09 09:55:56;;;;;;;83.78;28.65;;;4.30;99.10;;;;;;5045711;28;20177;-80
2020/12/09 09:58:22;;;;;;;88.50;31.70;;;4.30;99.10;;;;;;5045721;28;20235;-80
2020/12/09 10:00:48;;;;;;;94.10;30.90;;;4.30;99.10;;;;;;5045620;28;20412;-81
2020/12/09 10:03:13;;;;;;;77.70;30.33;;;4.30;99.10;;;;;;5045335;28;20415;-80
2020/12/09 10:05:39;;;;;;;86.90;29.63;;;4.30;99.10;;;;;;5045843;28;20473;-81
2020/12/09 10:08:05;;;;;;;94.37;29.60;;;4.30;99.10;;;;;;5045696;28;20197;-80
2020/12/09 10:10:31;;;;;;;80.17;28.93;;;4.20;99.10;;;;;;5046042;28;20183;-81
2020/12/09 10:12:56;;;;;;;80.60;30.00;;;4.20;99.10;;;;;;5046417;28;20420;-81
2020/12/09 10:15:22;;;;;;;83.53;30.67;;;4.20;99.10;;;;;;5046351;28;20181;-80
2020/12/09 10:17:48;;;;;;;74.40;28.27;;;4.20;99.10;;;;;;5045746;28;21005;-81
2020/12/09 10:20:14;;;;;;;81.10;29.50;;;4.20;99.10;;;;;;5046471;28;20427;-82
2020/12/09 10:22:40;;;;;;;79.53;29.50;;;4.20;99.10;;;;;;5046291;28;20177;-80
2020/12/09 10:25:05;;;;;;;82.60;28.07;;;4.20;99.10;;;;;;5046122;28;20412;-80
2020/12/09 10:27:31;;;;;;;95.73;29.93;;;4.10;99.10;;;;;;5045731;28;20439;-80
2020/12/09 10:29:57;;;;;;;82.37;28.90;;;4.10;99.10;;;;;;5046296;28;20502;-81
2020/12/09 10:32:24;;;;;;;89.60;26.87;;;4.10;99.10;;;;;;5044690;28;20273;-81
2020/12/09 10:34:50;;;;;;;91.30;31.25;;;4.10;99.10;;;;;;5045417;28;20424;-81
2020/12/09 10:37:16;;;;;;;93.83;31.27;;;4.00;99.10;;;;;;5042606;28;20253;-78
2020/12/09 10:39:42;;;;;;;79.27;29.30;;;4.00;99.10;;;;;;5040187;28;20470;-78
2020/12/09 10:42:07;;;;;;;81.30;29.90;;;4.10;99.10;;;;;;5040463;28;20427;-79
2020/12/09 10:44:33;;;;;;;86.77;31.50;;;4.10;99.10;;;;;;5041635;28;20177;-78
2020/12/09 10:47:01;;;;;;;88.20;31.07;;;4.10;99.10;;;;;;5042506;28;20432;-78
2020/12/09 10:49:32;;;;;;;94.78;31.38;;;4.10;99.10;;;;;;5045004;28;20443;-81
2020/12/09 10:51:58;;;;;;;87.70;31.70;;;4.10;99.10;;;;;;5047907;28;20177;-83
2020/12/09 10:54:24;;;;;;;81.88;29.15;;;4.10;99.10;;;;;;5046700;28;20260;-82
2020/12/09 10:56:50;;;;;;;87.97;30.13;;;4.10;99.10;;;;;;5046067;28;20740;-81
2020/12/09 10:59:16;;;;;;;84.23;30.33;;;4.10;99.10;;;;;;5044013;28;20224;-80
2020/12/09 11:01:46;;;;;;;95.85;31.23;;;4.00;99.10;;;;;;5043466;28;20475;-80
2020/12/09 11:04:12;;;;;;;92.68;31.10;;;4.10;99.10;;;;;;5045729;28;20170;-80
2020/12/09 11:06:38;;;;;;;84.63;29.30;;;4.10;99.10;;;;;;5046990;28;20241;-82
2020/12/09 11:09:07;;;;;;;81.23;30.23;;;4.10;99.10;;;;;;5040989;28;20169;-83
2020/12/09 11:11:37;;;;;;;92.45;34.42;;;4.20;99.10;;;;;;5039386;28;20927;-84
2020/12/09 11:14:03;;;;;;;89.28;30.58;;;4.10;99.10;;;;;;5039391;28;20170;-83
2020/12/09 11:16:29;;;;;;;100.07;33.20;;;4.20;99.10;;;;;;5039985;28;20212;-84
2020/12/09 11:18:55;;;;;;;85.53;31.40;;;4.20;99.10;;;;;;5038745;28;20197;-83
2020/12/09 11:21:23;;;;;;;86.63;32.40;;;4.20;99.10;;;;;;5039018;28;20502;-83
2020/12/09 11:23:50;;;;;;;77.28;29.02;;;4.30;99.10;;;;;;5056684;28;20174;-83
2020/12/09 11:26:17;;;;;;;92.50;34.45;;;4.20;99.10;;;;;;5038009;28;20173;-82
2020/12/09 11:28:43;;;;;;;100.28;33.05;;;4.20;99.10;;;;;;5039615;28;20173;-82
2020/12/09 11:31:09;;;;;;;81.00;29.75;;;4.30;99.10;;;;;;5038255;28;20320;-83
2020/12/09 11:33:34;;;;;;;98.13;31.40;;;4.20;99.10;;;;;;5037660;28;20232;-83
2020/12/09 11:36:04;;;;;;;86.90;28.17;;;4.20;99.10;;;;;;5038017;28;20485;-83
2020/12/09 11:38:30;;;;;;;93.85;31.33;;;4.20;99.10;;;;;;5037538;28;20459;-83
2020/12/09 11:40:56;;;;;;;97.10;32.25;;;4.20;99.10;;;;;;5037423;28;20169;-83
2020/12/09 11:43:24;;;;;;;91.88;30.98;;;4.20;99.10;;;;;;5039589;28;20173;-82
2020/12/09 11:45:50;;;;;;;95.82;29.42;;;4.20;99.10;;;;;;5040192;28;20176;-82
2020/12/09 11:48:16;;;;;;;84.75;30.42;;;4.20;99.10;;;;;;5040899;28;20669;-82
2020/12/09 11:50:42;;;;;;;109.27;32.90;;;4.20;99.10;;;;;;5041834;28;20177;-82
2020/12/09 11:53:08;;;;;;;86.90;31.53;;;4.20;99.10;;;;;;5041926;28;20175;-83
2020/12/09 11:55:34;;;;;;;80.50;28.58;;;4.30;99.10;;;;;;5041611;28;20411;-81
2020/12/09 11:58:00;;;;;;;88.40;31.27;;;4.30;99.10;;;;;;5041897;28;20797;-81
2020/12/09 12:00:28;;;;;;;89.23;31.90;;;4.30;99.10;;;;;;5042232;28;20173;-82
2020/12/09 12:02:54;;;;;;;85.65;31.33;;;4.40;99.10;;;;;;5040772;28;20803;-82
2020/12/09 12:05:23;;;;;;;88.97;31.40;;;4.30;99.10;;;;;;5041551;28;20169;-82
2020/12/09 12:07:49;;;;;;;89.53;28.52;;;4.30;99.10;;;;;;5041500;28;20196;-82
2020/12/09 12:10:14;;;;;;;95.07;32.40;;;4.30;99.10;;;;;;5062060;28;20185;-82
2020/12/09 12:12:40;;;;;;;88.17;28.83;;;4.30;99.10;;;;;;5045076;28;20215;-82
2020/12/09 12:15:07;;;;;;;93.67;28.77;;;4.40;99.10;;;;;;5042505;28;20463;-82
2020/12/09 12:17:32;;;;;;;107.57;29.10;;;4.40;99.10;;;;;;5041846;28;20676;-82
2020/12/09 12:19:58;;;;;;;106.97;30.50;;;4.40;99.10;;;;;;5042457;28;20225;-82
2020/12/09 12:22:24;;;;;;;103.10;32.47;;;4.30;99.10;;;;;;5046657;28;20396;-82
2020/12/09 12:24:51;;;;;;;89.20;29.83;;;4.30;99.10;;;;;;5042901;28;20412;-82
2020/12/09 12:27:17;;;;;;;97.72;30.02;;;4.30;99.10;;;;;;5044321;28;20223;-81
2020/12/09 12:29:43;;;;;;;106.33;31.03;;;4.30;99.10;;;;;;5039516;28;20177;-85
2020/12/09 12:32:09;;;;;;;100.70;30.40;;;4.30;99.10;;;;;;5036372;28;20408;-85
2020/12/09 12:34:36;;;;;;;97.15;28.02;;;4.20;99.10;;;;;;5036529;28;20420;-85
2020/12/09 12:37:04;;;;;;;104.90;32.92;;;4.30;99.10;;;;;;5050116;28;20173;-84